Time,TemperatureF,DewpointF,PressureIn,WindDirection,WindDirectionDegrees,WindSpeedMPH,WindSpeedGustMPH,Humidity,HourlyPrecipIn,Conditions,Clouds,dailyrainin,SoftwareType,DateUTC
2013-03-10 00:04:00,55.5,54.0,29.71,NNW,344,6.0,6.0,95,0.00,,,0.00,weatherlink.com 1.10,2013-03-10 06:04:00,
2013-03-10 00:10:00,55.5,54.1,29.72,NW,318,4.0,4.0,95,0.00,,,0.00,Wunderground v.1.15,2013-03-10 06:10:00,
2013-03-10 00:15:00,55.5,54.1,29.73,NW,317,3.0,4.0,95,0.00,,,0.00,Wunderground v.1.15,2013-03-10 06:15:00,
2013-03-10 00:19:00,55.5,54.0,29.74,NW,317,0.0,4.0,95,0.00,,,0.00,weatherlink.com 1.10,2013-03-10 06:19:00,
2013-03-10 00:20:00,55.5,54.1,29.74,NW,317,1.0,1.0,95,0.00,,,0.00,Wunderground v.1.15,2013-03-10 06:20:00,
2013-03-10 00:30:00,55.5,54.1,29.74,NW,317,0.0,2.0,95,0.00,,,0.00,Wunderground v.1.15,2013-03-10 06:30:00,
2013-03-10 00:34:00,55.5,54.0,29.76,West,281,5.0,5.0,95,0.00,,,0.00,weatherlink.com 1.10,2013-03-10 06:34:00,
2013-03-10 00:40:00,55.6,54.2,29.77,NW,313,3.0,4.0,95,0.00,,,0.00,Wunderground v.1.15,2013-03-10 06:40:00,
2013-03-10 00:45:00,55.7,54.3,29.77,WNW,295,3.0,4.0,95,0.00,,,0.00,Wunderground v.1.15,2013-03-10 06:45:00,
2013-03-10 00:48:00,55.7,54.0,29.78,SW,231,2.0,7.0,95,0.00,,,0.00,weatherlink.com 1.10,2013-03-10 06:48:00,
2013-03-10 00:55:00,55.7,54.0,29.76,NW,315,2.0,6.0,94,0.00,,,0.00,Wunderground v.1.15,2013-03-10 06:55:00,
2013-03-10 01:00:00,56.0,53.7,29.75,NW,308,4.0,4.0,92,0.00,,,0.00,Wunderground v.1.15,2013-03-10 07:00:00,
2013-03-10 01:04:00,56.4,53.0,29.75,NW,313,8.0,12.0,88,0.00,,,0.00,weatherlink.com 1.10,2013-03-10 07:04:00,
2013-03-10 01:10:00,56.8,52.7,29.76,NW,309,6.0,6.0,86,0.00,,,0.00,Wunderground v.1.15,2013-03-10 07:10:00,
2013-03-10 01:15:00,56.8,52.3,29.75,WNW,289,5.0,6.0,85,0.00,,,0.00,Wunderground v.1.15,2013-03-10 07:15:00,
2013-03-10 01:19:00,56.7,52.0,29.75,WNW,290,3.0,10.0,84,0.00,,,0.00,weatherlink.com 1.10,2013-03-10 07:19:00,
2013-03-10 01:20:00,56.7,51.9,29.75,WNW,282,3.0,3.0,84,0.00,,,0.00,Wunderground v.1.15,2013-03-10 07:20:00,
2013-03-10 01:25:00,56.7,51.6,29.76,WNW,284,3.0,6.0,83,0.00,,,0.00,Wunderground v.1.15,2013-03-10 07:25:00,
2013-03-10 01:30:00,56.8,51.4,29.76,WNW,292,3.0,3.0,82,0.00,,,0.00,Wunderground v.1.15,2013-03-10 07:30:00,
2013-03-10 01:34:00,56.8,51.0,29.75,WNW,296,3.0,9.0,80,0.00,,,0.00,weatherlink.com 1.10,2013-03-10 07:34:00,
2013-03-10 01:35:00,56.8,50.7,29.75,NW,308,4.0,4.0,80,0.00,,,0.00,Wunderground v.1.15,2013-03-10 07:35:00,
2013-03-10 01:45:00,56.8,49.3,29.75,NW,315,4.0,6.0,76,0.00,,,0.00,Wunderground v.1.15,2013-03-10 07:45:00,
2013-03-10 01:49:00,57.0,49.0,29.74,NW,315,9.0,13.0,74,0.00,,,0.00,weatherlink.com 1.10,2013-03-10 07:49:00,
2013-03-10 01:55:00,56.9,48.0,29.76,NW,306,6.0,7.0,72,0.00,,,0.00,Wunderground v.1.15,2013-03-10 07:55:00,
2013-03-10 03:00:00,56.8,47.1,29.77,NW,307,5.0,5.0,70,0.00,,,0.00,Wunderground v.1.15,2013-03-10 08:00:00,
2013-03-10 03:04:00,56.7,47.0,29.79,NW,309,4.0,10.0,69,0.00,,,0.00,weatherlink.com 1.10,2013-03-10 08:04:00,
2013-03-10 03:10:00,56.6,44.6,29.78,NW,315,4.0,11.0,64,0.00,,,0.00,Wunderground v.1.15,2013-03-10 08:10:00,
2013-03-10 03:15:00,56.9,44.0,29.78,WNW,302,6.0,11.0,62,0.00,,,0.00,Wunderground v.1.15,2013-03-10 08:15:00,
2013-03-10 03:19:00,56.8,44.0,29.78,NNW,332,0.0,15.0,62,0.00,,,0.00,weatherlink.com 1.10,2013-03-10 08:19:00,
2013-03-10 03:25:00,56.5,43.6,29.77,SW,230,4.0,6.0,62,0.00,,,0.00,Wunderground v.1.15,2013-03-10 08:25:00,
2013-03-10 03:30:00,56.1,43.3,29.75,WNW,302,4.0,8.0,62,0.00,,,0.00,Wunderground v.1.15,2013-03-10 08:30:00,
2013-03-10 03:34:00,56.0,43.0,29.74,West,273,2.0,13.0,62,0.00,,,0.00,weatherlink.com 1.10,2013-03-10 08:34:00,
2013-03-10 03:40:00,55.8,43.8,29.74,NNE,18,4.0,4.0,64,0.00,,,0.00,Wunderground v.1.15,2013-03-10 08:40:00,
2013-03-10 03:49:00,55.3,44.0,29.75,West,274,2.0,5.0,65,0.01,,,0.01,weatherlink.com 1.10,2013-03-10 08:49:00,
2013-03-10 03:55:00,54.9,43.7,29.76,SSW,205,3.0,4.0,66,0.00,,,0.01,Wunderground v.1.15,2013-03-10 08:55:00,
2013-03-10 04:00:00,54.6,43.9,29.76,SW,217,4.0,4.0,67,0.00,,,0.01,Wunderground v.1.15,2013-03-10 09:00:00,
2013-03-10 04:04:00,54.4,44.0,29.76,SW,220,2.0,7.0,68,0.01,,,0.01,weatherlink.com 1.10,2013-03-10 09:04:00,
2013-03-10 04:10:00,54.1,44.2,29.76,South,188,3.0,4.0,69,0.00,,,0.01,Wunderground v.1.15,2013-03-10 09:10:00,
2013-03-10 04:15:00,53.9,44.0,29.76,South,175,4.0,4.0,69,0.00,,,0.01,Wunderground v.1.15,2013-03-10 09:15:00,
2013-03-10 04:19:00,53.8,44.0,29.76,South,176,1.0,7.0,70,0.01,,,0.01,weatherlink.com 1.10,2013-03-10 09:19:00,
2013-03-10 04:25:00,54.4,43.3,29.76,SW,220,5.0,7.0,66,0.00,,,0.01,Wunderground v.1.15,2013-03-10 09:25:00,
2013-03-10 04:30:00,54.2,44.2,29.76,SSW,209,6.0,6.0,69,0.00,,,0.01,Wunderground v.1.15,2013-03-10 09:30:00,
2013-03-10 04:36:00,54.4,44.0,29.73,SSW,194,6.0,11.0,67,0.01,,,0.01,weatherlink.com 1.10,2013-03-10 09:36:00,
2013-03-10 04:45:00,54.1,44.2,29.69,SE,134,2.0,4.0,69,0.00,,,0.01,Wunderground v.1.15,2013-03-10 09:45:00,
2013-03-10 04:50:00,53.6,43.7,29.71,SSW,193,3.0,6.0,69,0.00,,,0.01,Wunderground v.1.15,2013-03-10 09:50:00,
2013-03-10 04:51:00,53.6,44.0,29.71,SSW,202,7.0,7.0,69,0.00,,,0.01,weatherlink.com 1.10,2013-03-10 09:51:00,
2013-03-10 04:55:00,53.6,44.0,29.70,SSW,207,4.0,6.0,70,0.00,,,0.01,Wunderground v.1.15,2013-03-10 09:55:00,
2013-03-10 05:00:00,53.4,44.2,29.70,South,170,4.0,5.0,71,0.00,,,0.01,Wunderground v.1.15,2013-03-10 10:00:00,
2013-03-10 05:05:00,53.0,44.2,29.69,SSE,164,4.0,6.0,72,0.00,,,0.01,Wunderground v.1.15,2013-03-10 10:05:00,
2013-03-10 05:06:00,53.0,44.0,29.69,SSE,166,3.0,7.0,72,0.00,,,0.01,weatherlink.com 1.10,2013-03-10 10:06:00,
2013-03-10 05:15:00,52.7,44.3,29.72,South,182,5.0,8.0,73,0.00,,,0.01,Wunderground v.1.15,2013-03-10 10:15:00,
2013-03-10 05:21:00,53.1,44.0,29.72,South,186,7.0,9.0,71,0.00,,,0.01,weatherlink.com 1.10,2013-03-10 10:21:00,
2013-03-10 05:25:00,53.3,43.8,29.71,South,190,6.0,7.0,70,0.00,,,0.01,Wunderground v.1.15,2013-03-10 10:25:00,
2013-03-10 05:30:00,53.3,43.8,29.72,SSW,213,5.0,6.0,70,0.00,,,0.01,Wunderground v.1.15,2013-03-10 10:30:00,
2013-03-10 05:35:00,53.3,43.8,29.73,SW,224,5.0,6.0,70,0.00,,,0.01,Wunderground v.1.15,2013-03-10 10:35:00,
2013-03-10 05:36:00,53.3,43.0,29.74,SW,231,3.0,10.0,69,0.00,,,0.01,weatherlink.com 1.10,2013-03-10 10:36:00,
2013-03-10 05:40:00,53.1,42.4,29.72,SSW,198,4.0,4.0,67,0.00,,,0.01,Wunderground v.1.15,2013-03-10 10:40:00,
2013-03-10 05:50:00,51.6,41.8,29.72,West,267,8.0,9.0,69,0.00,,,0.01,Wunderground v.1.15,2013-03-10 10:50:00,
2013-03-10 05:51:00,51.4,42.0,29.72,WNW,297,9.0,18.0,69,0.00,,,0.01,weatherlink.com 1.10,2013-03-10 10:51:00,
2013-03-10 05:55:00,50.3,40.1,29.75,NW,317,10.0,11.0,68,0.00,,,0.01,Wunderground v.1.15,2013-03-10 10:55:00,
2013-03-10 06:00:00,49.2,39.1,29.76,NW,307,10.0,10.0,68,0.00,,,0.01,Wunderground v.1.15,2013-03-10 11:00:00,
2013-03-10 06:05:00,48.6,38.9,29.80,NW,322,8.0,10.0,69,0.00,,,0.01,Wunderground v.1.15,2013-03-10 11:05:00,
2013-03-10 06:06:00,48.5,39.0,29.80,WNW,298,6.0,16.0,69,0.00,,,0.01,weatherlink.com 1.10,2013-03-10 11:06:00,
2013-03-10 06:15:00,47.9,38.6,29.78,NNW,327,7.0,7.0,70,0.00,,,0.01,Wunderground v.1.15,2013-03-10 11:15:00,
2013-03-10 06:20:00,47.7,39.1,29.77,NW,315,7.0,8.0,72,0.00,,,0.01,Wunderground v.1.15,2013-03-10 11:20:00,
2013-03-10 06:21:00,47.7,39.0,29.77,NNW,344,10.0,14.0,72,0.00,,,0.01,weatherlink.com 1.10,2013-03-10 11:21:00,
2013-03-10 06:30:00,47.4,38.8,29.78,NW,322,7.0,11.0,72,0.00,,,0.01,Wunderground v.1.15,2013-03-10 11:30:00,
2013-03-10 06:36:00,47.3,39.0,29.80,WNW,302,3.0,11.0,72,0.00,,,0.01,weatherlink.com 1.10,2013-03-10 11:36:00,
2013-03-10 06:45:00,47.2,38.6,29.80,NW,315,5.0,10.0,72,0.00,,,0.01,Wunderground v.1.15,2013-03-10 11:45:00,
2013-03-10 06:51:00,47.1,38.0,29.77,WNW,301,7.0,11.0,72,0.00,,,0.01,weatherlink.com 1.10,2013-03-10 11:51:00,
2013-03-10 07:00:00,46.8,38.2,29.77,NNW,346,8.0,8.0,72,0.00,,,0.01,Wunderground v.1.15,2013-03-10 12:00:00,
2013-03-10 07:05:00,46.6,37.3,29.77,NW,316,9.0,10.0,70,0.00,,,0.01,Wunderground v.1.15,2013-03-10 12:05:00,
2013-03-10 07:06:00,46.6,37.0,29.76,NW,319,10.0,19.0,69,0.00,,,0.01,weatherlink.com 1.10,2013-03-10 12:06:00,
2013-03-10 07:15:00,46.3,36.7,29.76,NW,307,11.0,12.0,69,0.00,,,0.01,Wunderground v.1.15,2013-03-10 12:15:00,
2013-03-10 07:22:00,46.1,36.0,29.77,NNW,334,6.0,22.0,69,0.00,,,0.01,weatherlink.com 1.10,2013-03-10 12:22:00,
2013-03-10 07:30:00,46.0,36.4,29.77,NNW,334,8.0,8.0,69,0.00,,,0.01,Wunderground v.1.15,2013-03-10 12:30:00,
2013-03-10 07:35:00,45.8,36.2,29.78,NW,313,8.0,8.0,69,0.00,,,0.01,Wunderground v.1.15,2013-03-10 12:35:00,
2013-03-10 07:37:00,45.8,36.0,29.78,NW,325,5.0,15.0,69,0.00,,,0.01,weatherlink.com 1.10,2013-03-10 12:37:00,
2013-03-10 07:45:00,45.7,36.5,29.79,NW,315,7.0,10.0,70,0.00,,,0.01,Wunderground v.1.15,2013-03-10 12:45:00,
2013-03-10 07:52:00,45.7,36.0,29.80,NW,310,4.0,18.0,69,0.00,,,0.01,weatherlink.com 1.10,2013-03-10 12:52:00,
2013-03-10 08:00:00,45.5,35.9,29.80,WNW,285,7.0,7.0,69,0.00,,,0.01,Wunderground v.1.15,2013-03-10 13:00:00,
2013-03-10 08:07:00,45.5,36.0,29.81,NW,304,7.0,11.0,70,0.00,,,0.01,weatherlink.com 1.10,2013-03-10 13:07:00,
2013-03-10 08:10:00,45.4,36.2,29.81,NW,316,5.0,6.0,70,0.00,,,0.01,Wunderground v.1.15,2013-03-10 13:10:00,
2013-03-10 08:20:00,45.4,36.2,29.81,NW,321,7.0,8.0,70,0.00,,,0.01,Wunderground v.1.15,2013-03-10 13:20:00,
2013-03-10 08:22:00,45.3,36.0,29.81,WNW,300,5.0,15.0,70,0.00,,,0.01,weatherlink.com 1.10,2013-03-10 13:22:00,
2013-03-10 08:25:00,45.3,36.1,29.81,NNW,335,7.0,8.0,70,0.00,,,0.01,Wunderground v.1.15,2013-03-10 13:25:00,
2013-03-10 08:35:00,45.1,35.9,29.82,WNW,302,8.0,9.0,70,0.00,,,0.01,Wunderground v.1.15,2013-03-10 13:35:00,
2013-03-10 08:37:00,45.1,36.0,29.82,NW,309,10.0,16.0,70,0.00,,,0.01,weatherlink.com 1.10,2013-03-10 13:37:00,
2013-03-10 08:45:00,45.0,35.8,29.83,WNW,287,8.0,11.0,70,0.00,,,0.01,Wunderground v.1.15,2013-03-10 13:45:00,
2013-03-10 08:50:00,45.0,36.2,29.83,WNW,300,8.0,8.0,71,0.00,,,0.01,Wunderground v.1.15,2013-03-10 13:50:00,
2013-03-10 08:52:00,45.0,36.0,29.83,NW,315,4.0,16.0,71,0.00,,,0.01,weatherlink.com 1.10,2013-03-10 13:52:00,
2013-03-10 09:00:00,45.1,36.3,29.83,NW,313,7.0,7.0,71,0.00,,,0.01,Wunderground v.1.15,2013-03-10 14:00:00,
2013-03-10 09:07:00,45.2,36.0,29.84,NW,306,4.0,17.0,70,0.00,,,0.01,weatherlink.com 1.10,2013-03-10 14:07:00,
2013-03-10 09:10:00,45.2,36.0,29.84,NW,311,8.0,9.0,70,0.00,,,0.01,Wunderground v.1.15,2013-03-10 14:10:00,
2013-03-10 09:15:00,45.2,36.4,29.84,WNW,302,8.0,9.0,71,0.00,,,0.01,Wunderground v.1.15,2013-03-10 14:15:00,
2013-03-10 09:20:00,45.3,36.4,29.85,NW,311,7.0,7.0,71,0.00,,,0.01,Wunderground v.1.15,2013-03-10 14:20:00,
2013-03-10 09:22:00,45.3,36.0,29.84,NW,315,7.0,13.0,71,0.00,,,0.01,weatherlink.com 1.10,2013-03-10 14:22:00,
2013-03-10 09:30:00,45.4,36.5,29.85,NW,317,9.0,9.0,71,0.00,,,0.01,Wunderground v.1.15,2013-03-10 14:30:00,
2013-03-10 09:35:00,45.5,36.6,29.85,NNW,346,9.0,9.0,71,0.00,,,0.01,Wunderground v.1.15,2013-03-10 14:35:00,
2013-03-10 09:39:00,45.5,37.0,29.85,NNW,329,10.0,15.0,71,0.00,,,0.01,weatherlink.com 1.10,2013-03-10 14:39:00,
2013-03-10 09:45:00,45.4,36.5,29.85,NW,319,7.0,9.0,71,0.00,,,0.01,Wunderground v.1.15,2013-03-10 14:45:00,
2013-03-10 09:50:00,45.4,36.5,29.85,NW,321,8.0,8.0,71,0.00,,,0.01,Wunderground v.1.15,2013-03-10 14:50:00,
2013-03-10 09:54:00,45.4,37.0,29.86,WNW,296,6.0,15.0,72,0.00,,,0.01,weatherlink.com 1.10,2013-03-10 14:54:00,
2013-03-10 09:55:00,45.4,36.9,29.86,West,279,8.0,8.0,72,0.00,,,0.01,Wunderground v.1.15,2013-03-10 14:55:00,
2013-03-10 10:05:00,45.3,37.2,29.86,NW,313,7.0,8.0,73,0.00,,,0.01,Wunderground v.1.15,2013-03-10 15:05:00,
2013-03-10 10:08:00,45.3,37.0,29.86,NW,318,6.0,12.0,74,0.00,,,0.01,weatherlink.com 1.10,2013-03-10 15:08:00,
2013-03-10 10:10:00,45.3,37.2,29.86,WNW,285,6.0,6.0,73,0.00,,,0.01,Wunderground v.1.15,2013-03-10 15:10:00,
2013-03-10 10:15:00,45.2,37.4,29.86,WNW,298,7.0,11.0,74,0.00,,,0.01,Wunderground v.1.15,2013-03-10 15:15:00,
2013-03-10 10:20:00,45.2,37.4,29.86,NW,324,8.0,8.0,74,0.00,,,0.01,Wunderground v.1.15,2013-03-10 15:20:00,
2013-03-10 10:24:00,45.3,37.0,29.86,WNW,290,6.0,17.0,74,0.00,,,0.01,weatherlink.com 1.10,2013-03-10 15:24:00,
2013-03-10 10:30:00,45.6,37.4,29.87,NW,310,8.0,8.0,73,0.00,,,0.01,Wunderground v.1.15,2013-03-10 15:30:00,
2013-03-10 10:39:00,45.4,38.0,29.88,NW,319,13.0,20.0,74,0.00,,,0.01,weatherlink.com 1.10,2013-03-10 15:39:00,
2013-03-10 10:45:00,44.9,37.5,29.88,NW,315,11.0,12.0,75,0.00,,,0.01,Wunderground v.1.15,2013-03-10 15:45:00,
2013-03-10 10:54:00,43.8,37.0,29.89,NW,324,10.0,23.0,76,0.00,,,0.01,weatherlink.com 1.10,2013-03-10 15:54:00,
2013-03-10 11:00:00,43.3,36.6,29.90,NNW,327,12.0,12.0,77,0.00,,,0.01,Wunderground v.1.15,2013-03-10 16:00:00,
2013-03-10 11:05:00,42.9,36.5,29.90,NW,305,12.0,16.0,78,0.00,,,0.01,Wunderground v.1.15,2013-03-10 16:05:00,
2013-03-10 11:09:00,42.6,36.0,29.91,NW,325,7.0,21.0,77,0.00,,,0.01,weatherlink.com 1.10,2013-03-10 16:09:00,
2013-03-10 11:15:00,42.3,35.6,29.91,WNW,302,11.0,12.0,77,0.00,,,0.01,Wunderground v.1.15,2013-03-10 16:15:00,
2013-03-10 11:20:00,42.1,35.7,29.91,NW,319,10.0,10.0,78,0.00,,,0.01,Wunderground v.1.15,2013-03-10 16:20:00,
2013-03-10 11:24:00,42.0,36.0,29.92,NW,326,8.0,18.0,79,0.00,,,0.01,weatherlink.com 1.10,2013-03-10 16:24:00,
2013-03-10 11:30:00,41.8,35.8,29.92,NW,323,10.0,10.0,79,0.00,,,0.01,Wunderground v.1.15,2013-03-10 16:30:00,
2013-03-10 11:39:00,41.2,36.0,29.92,NW,319,14.0,21.0,80,0.00,,,0.01,weatherlink.com 1.10,2013-03-10 16:39:00,
2013-03-10 11:45:00,41.1,35.4,29.93,NW,321,11.0,12.0,80,0.00,,,0.01,Wunderground v.1.15,2013-03-10 16:45:00,
2013-03-10 11:50:00,41.1,35.1,29.93,NNW,329,10.0,13.0,79,0.00,,,0.01,Wunderground v.1.15,2013-03-10 16:50:00,
2013-03-10 11:54:00,40.9,35.0,29.93,NW,317,6.0,22.0,78,0.00,,,0.01,weatherlink.com 1.10,2013-03-10 16:54:00,
2013-03-10 12:00:00,41.1,34.8,29.94,NW,323,12.0,13.0,78,0.00,,,0.01,Wunderground v.1.15,2013-03-10 17:00:00,
2013-03-10 12:05:00,41.1,34.4,29.94,NW,316,12.0,13.0,77,0.00,,,0.01,Wunderground v.1.15,2013-03-10 17:05:00,
2013-03-10 12:09:00,41.2,34.0,29.94,WNW,301,12.0,23.0,76,0.00,,,0.01,weatherlink.com 1.10,2013-03-10 17:09:00,
2013-03-10 12:15:00,41.6,34.6,29.94,NW,318,12.0,15.0,76,0.00,,,0.01,Wunderground v.1.15,2013-03-10 17:15:00,
2013-03-10 12:20:00,41.8,34.1,29.94,NW,321,12.0,13.0,74,0.00,,,0.01,Wunderground v.1.15,2013-03-10 17:20:00,
2013-03-10 12:24:00,42.1,34.0,29.94,NW,311,7.0,20.0,74,0.00,,,0.01,weatherlink.com 1.10,2013-03-10 17:24:00,
2013-03-10 12:30:00,42.3,33.6,29.94,NW,317,12.0,17.0,71,0.00,,,0.01,Wunderground v.1.15,2013-03-10 17:30:00,
2013-03-10 12:35:00,42.3,33.9,29.95,NNW,346,11.0,17.0,72,0.00,,,0.01,Wunderground v.1.15,2013-03-10 17:35:00,
2013-03-10 12:39:00,42.1,33.0,29.95,NNW,342,8.0,22.0,71,0.00,,,0.01,weatherlink.com 1.10,2013-03-10 17:39:00,
2013-03-10 12:45:00,42.2,33.8,29.95,WNW,302,12.0,14.0,72,0.00,,,0.01,Wunderground v.1.15,2013-03-10 17:45:00,
2013-03-10 12:54:00,42.3,33.0,29.96,NW,314,18.0,22.0,70,0.00,,,0.01,weatherlink.com 1.10,2013-03-10 17:54:00,
2013-03-10 13:00:00,42.1,32.7,29.96,NW,309,14.0,14.0,69,0.00,,,0.01,Wunderground v.1.15,2013-03-10 18:00:00,
2013-03-10 13:09:00,42.4,33.0,29.96,NW,313,14.0,23.0,69,0.00,,,0.01,weatherlink.com 1.10,2013-03-10 18:09:00,
2013-03-10 13:15:00,42.6,33.1,29.97,North,360,12.0,15.0,69,0.00,,,0.01,Wunderground v.1.15,2013-03-10 18:15:00,
2013-03-10 13:20:00,42.6,33.1,29.97,NW,318,11.0,25.0,69,0.00,,,0.01,Wunderground v.1.15,2013-03-10 18:20:00,
2013-03-10 13:25:00,42.4,32.6,29.97,NW,318,14.0,25.0,68,0.00,,,0.01,Wunderground v.1.15,2013-03-10 18:25:00,
2013-03-10 13:26:00,42.4,32.0,29.97,NW,323,21.0,28.0,68,0.00,,,0.01,weatherlink.com 1.10,2013-03-10 18:26:00,
2013-03-10 13:35:00,42.4,32.9,29.98,NNW,342,14.0,16.0,69,0.00,,,0.01,Wunderground v.1.15,2013-03-10 18:35:00,
2013-03-10 13:41:00,42.3,33.0,29.98,WNW,300,13.0,21.0,69,0.00,,,0.01,weatherlink.com 1.10,2013-03-10 18:41:00,
2013-03-10 13:50:00,42.4,32.9,29.98,NW,326,10.0,10.0,69,0.00,,,0.01,Wunderground v.1.15,2013-03-10 18:50:00,
2013-03-10 13:55:00,42.5,33.0,29.98,WNW,296,9.0,10.0,69,0.00,,,0.01,Wunderground v.1.15,2013-03-10 18:55:00,
2013-03-10 13:56:00,42.6,33.0,29.98,WNW,290,10.0,16.0,69,0.00,,,0.01,weatherlink.com 1.10,2013-03-10 18:56:00,
2013-03-10 14:05:00,42.7,33.2,29.98,NW,325,10.0,10.0,69,0.00,,,0.01,Wunderground v.1.15,2013-03-10 19:05:00,
2013-03-10 14:11:00,42.8,33.0,29.98,NW,324,14.0,19.0,68,0.00,,,0.01,weatherlink.com 1.10,2013-03-10 19:11:00,
2013-03-10 14:20:00,42.9,33.1,29.98,NW,319,10.0,12.0,68,0.00,,,0.01,Wunderground v.1.15,2013-03-10 19:20:00,
2013-03-10 14:25:00,43.0,32.8,29.97,NNW,336,10.0,12.0,67,0.00,,,0.01,Wunderground v.1.15,2013-03-10 19:25:00,
2013-03-10 14:26:00,43.0,33.0,29.97,NNW,327,14.0,19.0,67,0.00,,,0.01,weatherlink.com 1.10,2013-03-10 19:26:00,
2013-03-10 14:30:00,43.3,33.1,29.97,NW,317,11.0,13.0,67,0.00,,,0.01,Wunderground v.1.15,2013-03-10 19:30:00,
2013-03-10 14:35:00,43.6,33.0,29.97,WNW,303,11.0,13.0,66,0.00,,,0.01,Wunderground v.1.15,2013-03-10 19:35:00,
2013-03-10 14:40:00,43.7,32.7,29.97,NNW,337,11.0,11.0,65,0.00,,,0.01,Wunderground v.1.15,2013-03-10 19:40:00,
2013-03-10 14:41:00,43.7,33.0,29.97,NNW,327,13.0,20.0,65,0.00,,,0.01,weatherlink.com 1.10,2013-03-10 19:41:00,
2013-03-10 14:50:00,43.2,32.6,29.98,NW,313,11.0,11.0,66,0.00,,,0.01,Wunderground v.1.15,2013-03-10 19:50:00,
2013-03-10 14:55:00,43.1,32.5,29.98,WNW,289,10.0,13.0,66,0.00,,,0.01,Wunderground v.1.15,2013-03-10 19:55:00,
2013-03-10 15:00:00,43.1,32.9,29.98,NW,324,9.0,11.0,67,0.00,,,0.01,Wunderground v.1.15,2013-03-10 20:00:00,
2013-03-10 15:10:00,42.8,32.2,29.98,NW,315,10.0,14.0,66,0.00,,,0.01,Wunderground v.1.15,2013-03-10 20:10:00,
2013-03-10 15:11:00,42.7,32.0,29.98,WNW,302,4.0,18.0,66,0.00,,,0.01,weatherlink.com 1.10,2013-03-10 20:11:00,
2013-03-10 15:20:00,42.5,32.3,29.99,NNW,331,10.0,10.0,67,0.00,,,0.01,Wunderground v.1.15,2013-03-10 20:20:00,
2013-03-10 15:25:00,42.0,32.2,29.99,NNW,338,11.0,11.0,68,0.00,,,0.01,Wunderground v.1.15,2013-03-10 20:25:00,
2013-03-10 15:26:00,42.0,32.0,29.99,NNW,335,12.0,23.0,68,0.00,,,0.01,weatherlink.com 1.10,2013-03-10 20:26:00,
2013-03-10 15:35:00,42.0,32.2,29.99,NW,319,12.0,14.0,68,0.00,,,0.01,Wunderground v.1.15,2013-03-10 20:35:00,
2013-03-10 15:40:00,42.1,32.3,29.99,NNW,336,11.0,11.0,68,0.00,,,0.01,Wunderground v.1.15,2013-03-10 20:40:00,
2013-03-10 15:41:00,42.2,32.0,29.99,NW,306,13.0,22.0,68,0.00,,,0.01,weatherlink.com 1.10,2013-03-10 20:41:00,
2013-03-10 15:50:00,42.5,31.9,30.00,NW,321,8.0,8.0,66,0.00,,,0.01,Wunderground v.1.15,2013-03-10 20:50:00,
2013-03-10 15:55:00,42.7,32.5,29.99,NW,319,10.0,18.0,67,0.00,,,0.01,Wunderground v.1.15,2013-03-10 20:55:00,
2013-03-10 15:56:00,42.6,32.0,30.00,NNW,327,8.0,20.0,66,0.00,,,0.01,weatherlink.com 1.10,2013-03-10 20:56:00,
2013-03-10 16:05:00,42.4,31.5,30.00,NNW,328,13.0,15.0,65,0.00,,,0.01,Wunderground v.1.15,2013-03-10 21:05:00,
2013-03-10 16:11:00,42.5,31.0,30.00,NNW,333,16.0,22.0,65,0.00,,,0.01,weatherlink.com 1.10,2013-03-10 21:11:00,
2013-03-10 16:15:00,42.3,31.4,30.00,North,355,13.0,18.0,65,0.00,,,0.01,Wunderground v.1.15,2013-03-10 21:15:00,
2013-03-10 16:20:00,42.4,31.5,30.00,NW,315,12.0,12.0,65,0.00,,,0.01,Wunderground v.1.15,2013-03-10 21:20:00,
2013-03-10 16:25:00,42.7,31.7,30.00,North,360,10.0,12.0,65,0.00,,,0.01,Wunderground v.1.15,2013-03-10 21:25:00,
2013-03-10 16:26:00,42.8,32.0,30.00,North,5,8.0,17.0,65,0.00,,,0.01,weatherlink.com 1.10,2013-03-10 21:26:00,
2013-03-10 16:35:00,42.8,30.7,30.00,NW,323,11.0,13.0,62,0.00,,,0.01,Wunderground v.1.15,2013-03-10 21:35:00,
2013-03-10 16:40:00,42.6,31.3,30.00,WNW,297,12.0,12.0,64,0.00,,,0.01,Wunderground v.1.15,2013-03-10 21:40:00,
2013-03-10 16:42:00,42.6,31.0,30.01,NW,317,11.0,21.0,63,0.00,,,0.01,weatherlink.com 1.10,2013-03-10 21:42:00,
2013-03-10 16:50:00,42.6,30.9,30.00,NNW,338,10.0,10.0,63,0.00,,,0.01,Wunderground v.1.15,2013-03-10 21:50:00,
2013-03-10 16:55:00,42.7,30.6,30.01,NNW,332,9.0,11.0,62,0.00,,,0.01,Wunderground v.1.15,2013-03-10 21:55:00,
2013-03-10 16:57:00,42.7,30.0,30.00,NW,319,8.0,17.0,61,0.00,,,0.01,weatherlink.com 1.10,2013-03-10 21:57:00,
2013-03-10 17:05:00,42.6,29.3,30.00,NW,314,12.0,16.0,59,0.00,,,0.01,Wunderground v.1.15,2013-03-10 22:05:00,
2013-03-10 17:10:00,42.5,29.6,30.00,NW,319,14.0,19.0,60,0.00,,,0.01,Wunderground v.1.15,2013-03-10 22:10:00,
2013-03-10 17:12:00,42.5,29.0,30.00,NW,325,7.0,21.0,60,0.00,,,0.01,weatherlink.com 1.10,2013-03-10 22:12:00,
2013-03-10 17:15:00,42.6,29.3,30.00,NW,311,12.0,19.0,59,0.00,,,0.01,Wunderground v.1.15,2013-03-10 22:15:00,
2013-03-10 17:20:00,42.7,29.4,30.00,NW,325,12.0,12.0,59,0.00,,,0.01,Wunderground v.1.15,2013-03-10 22:20:00,
2013-03-10 17:25:00,43.0,30.1,30.00,NW,308,12.0,12.0,60,0.00,,,0.01,Wunderground v.1.15,2013-03-10 22:25:00,
2013-03-10 17:27:00,43.0,29.0,30.00,NW,316,17.0,24.0,59,0.00,,,0.01,weatherlink.com 1.10,2013-03-10 22:27:00,
2013-03-10 17:35:00,43.0,29.2,30.00,NW,319,13.0,13.0,58,0.00,,,0.01,Wunderground v.1.15,2013-03-10 22:35:00,
2013-03-10 17:40:00,43.0,29.2,30.00,NNW,344,12.0,16.0,58,0.00,,,0.01,Wunderground v.1.15,2013-03-10 22:40:00,
2013-03-10 17:42:00,43.0,29.0,30.00,NW,311,14.0,21.0,58,0.00,,,0.01,weatherlink.com 1.10,2013-03-10 22:42:00,
2013-03-10 17:45:00,43.1,29.3,30.00,NW,323,13.0,16.0,58,0.00,,,0.01,Wunderground v.1.15,2013-03-10 22:45:00,
2013-03-10 17:50:00,43.2,29.4,30.00,North,349,13.0,13.0,58,0.00,,,0.01,Wunderground v.1.15,2013-03-10 22:50:00,
2013-03-10 17:55:00,43.3,29.1,30.00,NW,321,12.0,13.0,57,0.00,,,0.01,Wunderground v.1.15,2013-03-10 22:55:00,
2013-03-10 18:00:00,43.4,30.0,30.01,North,349,11.0,11.0,59,0.00,,,0.01,Wunderground v.1.15,2013-03-10 23:00:00,
2013-03-10 18:05:00,43.5,29.3,30.01,NNW,335,10.0,12.0,57,0.00,,,0.01,Wunderground v.1.15,2013-03-10 23:05:00,
2013-03-10 18:10:00,43.5,29.7,30.01,NNW,342,9.0,11.0,58,0.00,,,0.01,Wunderground v.1.15,2013-03-10 23:10:00,
2013-03-10 18:12:00,43.6,30.0,30.01,NW,310,13.0,20.0,58,0.00,,,0.01,weatherlink.com 1.10,2013-03-10 23:12:00,
2013-03-10 18:20:00,43.6,29.8,30.01,NW,323,9.0,9.0,58,0.00,,,0.01,Wunderground v.1.15,2013-03-10 23:20:00,
2013-03-10 18:25:00,43.5,29.7,30.01,NW,313,11.0,14.0,58,0.00,,,0.01,Wunderground v.1.15,2013-03-10 23:25:00,
2013-03-10 18:27:00,43.4,29.0,30.01,NNW,336,10.0,21.0,58,0.00,,,0.01,weatherlink.com 1.10,2013-03-10 23:27:00,
2013-03-10 18:35:00,43.6,29.4,30.02,NNW,331,10.0,12.0,57,0.00,,,0.01,Wunderground v.1.15,2013-03-10 23:35:00,
2013-03-10 18:40:00,43.6,29.4,30.02,NW,321,11.0,11.0,57,0.00,,,0.01,Wunderground v.1.15,2013-03-10 23:40:00,
2013-03-10 18:43:00,43.6,30.0,30.02,NW,313,5.0,18.0,58,0.00,,,0.01,weatherlink.com 1.10,2013-03-10 23:43:00,
2013-03-10 18:50:00,43.4,29.6,30.02,NNW,331,10.0,10.0,58,0.00,,,0.01,Wunderground v.1.15,2013-03-10 23:50:00,
2013-03-10 18:55:00,43.2,29.4,30.02,NW,320,11.0,12.0,58,0.00,,,0.01,Wunderground v.1.15,2013-03-10 23:55:00,
2013-03-10 18:58:00,43.3,30.0,30.02,NNW,341,11.0,19.0,59,0.00,,,0.01,weatherlink.com 1.10,2013-03-10 23:58:00,
2013-03-10 19:00:00,43.3,29.5,30.03,NNW,327,11.0,11.0,58,0.00,,,0.01,Wunderground v.1.15,2013-03-11 00:00:00,
2013-03-10 19:05:00,43.2,29.4,30.03,NW,324,10.0,11.0,58,0.00,,,0.01,Wunderground v.1.15,2013-03-11 00:05:00,
2013-03-10 19:10:00,43.2,29.8,30.03,NW,323,9.0,9.0,59,0.00,,,0.01,Wunderground v.1.15,2013-03-11 00:10:00,
2013-03-10 19:14:00,43.2,30.0,30.03,NW,309,7.0,14.0,59,0.00,,,0.01,weatherlink.com 1.10,2013-03-11 00:14:00,
2013-03-10 19:25:00,43.1,29.7,30.03,NW,309,6.0,6.0,59,0.00,,,0.01,Wunderground v.1.15,2013-03-11 00:25:00,
2013-03-10 19:29:00,43.0,29.0,30.03,NW,315,7.0,13.0,59,0.00,,,0.01,weatherlink.com 1.10,2013-03-11 00:29:00,
2013-03-10 19:30:00,43.0,29.6,30.03,NNW,336,7.0,7.0,59,0.00,,,0.01,Wunderground v.1.15,2013-03-11 00:30:00,
2013-03-10 19:35:00,42.9,30.0,30.04,NNW,335,7.0,7.0,60,0.00,,,0.01,Wunderground v.1.15,2013-03-11 00:35:00,
2013-03-10 19:40:00,42.8,30.3,30.04,NW,322,6.0,6.0,61,0.00,,,0.01,Wunderground v.1.15,2013-03-11 00:40:00,
2013-03-10 19:44:00,42.7,30.0,30.04,NW,313,6.0,10.0,61,0.00,,,0.01,weatherlink.com 1.10,2013-03-11 00:44:00,
2013-03-10 19:45:00,42.7,30.2,30.04,NNW,338,6.0,6.0,61,0.00,,,0.01,Wunderground v.1.15,2013-03-11 00:45:00,
2013-03-10 19:50:00,42.6,30.1,30.04,NNW,330,6.0,6.0,61,0.00,,,0.01,Wunderground v.1.15,2013-03-11 00:50:00,
2013-03-10 19:55:00,42.5,30.0,30.04,NNW,333,5.0,6.0,61,0.00,,,0.01,Wunderground v.1.15,2013-03-11 00:55:00,
2013-03-10 19:58:00,42.4,30.0,30.04,NW,313,6.0,10.0,61,0.00,,,0.01,weatherlink.com 1.10,2013-03-11 00:58:00,
2013-03-10 20:05:00,42.2,30.1,30.05,NNW,331,5.0,6.0,62,0.00,,,0.01,Wunderground v.1.15,2013-03-11 01:05:00,
2013-03-10 20:10:00,42.1,30.0,30.05,NNW,344,4.0,4.0,62,0.00,,,0.01,Wunderground v.1.15,2013-03-11 01:10:00,
2013-03-10 20:14:00,42.0,30.0,30.05,NNW,342,5.0,10.0,62,0.00,,,0.01,weatherlink.com 1.10,2013-03-11 01:14:00,
2013-03-10 20:20:00,41.8,29.7,30.06,NNE,22,5.0,5.0,62,0.00,,,0.01,Wunderground v.1.15,2013-03-11 01:20:00,
2013-03-10 20:29:00,41.6,30.0,30.06,NNW,335,7.0,8.0,64,0.00,,,0.01,weatherlink.com 1.10,2013-03-11 01:29:00,
2013-03-10 20:35:00,41.4,30.5,30.06,North,349,4.0,9.0,65,0.00,,,0.01,Wunderground v.1.15,2013-03-11 01:35:00,
2013-03-10 20:40:00,41.2,30.3,30.07,North,360,4.0,4.0,65,0.00,,,0.01,Wunderground v.1.15,2013-03-11 01:40:00,
2013-03-10 20:44:00,41.0,30.0,30.07,North,5,8.0,8.0,66,0.00,,,0.01,weatherlink.com 1.10,2013-03-11 01:44:00,
2013-03-10 20:50:00,40.8,30.3,30.08,North,355,5.0,9.0,66,0.00,,,0.01,Wunderground v.1.15,2013-03-11 01:50:00,
2013-03-10 20:55:00,40.7,30.6,30.08,North,5,5.0,9.0,67,0.00,,,0.01,Wunderground v.1.15,2013-03-11 01:55:00,
2013-03-10 20:59:00,40.6,30.0,30.08,NNW,341,6.0,12.0,67,0.00,,,0.01,weatherlink.com 1.10,2013-03-11 01:59:00,
2013-03-10 21:05:00,40.5,30.8,30.08,NNW,335,5.0,5.0,68,0.00,,,0.01,Wunderground v.1.15,2013-03-11 02:05:00,
2013-03-10 21:10:00,40.3,30.6,30.09,NNW,339,4.0,4.0,68,0.00,,,0.01,Wunderground v.1.15,2013-03-11 02:10:00,
2013-03-10 21:14:00,40.1,31.0,30.09,North,355,3.0,9.0,69,0.00,,,0.01,weatherlink.com 1.10,2013-03-11 02:14:00,
2013-03-10 21:20:00,40.0,30.6,30.09,North,355,5.0,5.0,69,0.00,,,0.01,Wunderground v.1.15,2013-03-11 02:20:00,
2013-03-10 21:29:00,39.8,30.0,30.10,NNW,340,3.0,13.0,68,0.00,,,0.01,weatherlink.com 1.10,2013-03-11 02:29:00,
2013-03-10 21:35:00,39.6,29.9,30.10,North,360,6.0,7.0,68,0.00,,,0.01,Wunderground v.1.15,2013-03-11 02:35:00,
2013-03-10 21:44:00,39.5,30.0,30.10,NNW,343,4.0,9.0,69,0.00,,,0.01,weatherlink.com 1.10,2013-03-11 02:44:00,
2013-03-10 21:50:00,39.4,30.1,30.11,NNW,329,5.0,5.0,69,0.00,,,0.01,Wunderground v.1.15,2013-03-11 02:50:00,
2013-03-10 21:55:00,39.3,30.0,30.11,NNW,344,4.0,7.0,69,0.00,,,0.01,Wunderground v.1.15,2013-03-11 02:55:00,
2013-03-10 21:59:00,39.3,30.0,30.11,NNW,340,3.0,10.0,69,0.00,,,0.01,weatherlink.com 1.10,2013-03-11 02:59:00,
2013-03-10 22:05:00,39.3,30.0,30.11,NNW,329,5.0,5.0,69,0.00,,,0.01,Wunderground v.1.15,2013-03-11 03:05:00,
2013-03-10 22:10:00,39.2,30.2,30.12,NW,322,4.0,5.0,70,0.00,,,0.01,Wunderground v.1.15,2013-03-11 03:10:00,
2013-03-10 22:14:00,39.2,30.0,30.11,NNW,344,4.0,6.0,70,0.00,,,0.01,weatherlink.com 1.10,2013-03-11 03:14:00,
2013-03-10 22:20:00,39.1,30.1,30.11,NNE,18,4.0,5.0,70,0.00,,,0.01,Wunderground v.1.15,2013-03-11 03:20:00,
2013-03-10 22:29:00,39.0,30.0,30.11,North,355,4.0,9.0,69,0.00,,,0.01,weatherlink.com 1.10,2013-03-11 03:29:00,
2013-03-10 22:35:00,38.9,29.6,30.11,NW,326,5.0,5.0,69,0.00,,,0.01,Wunderground v.1.15,2013-03-11 03:35:00,
2013-03-10 22:40:00,38.9,29.6,30.11,NNW,348,5.0,5.0,69,0.00,,,0.01,Wunderground v.1.15,2013-03-11 03:40:00,
2013-03-10 22:44:00,38.9,30.0,30.12,NNW,333,4.0,7.0,70,0.00,,,0.01,weatherlink.com 1.10,2013-03-11 03:44:00,
2013-03-10 22:45:00,38.9,29.9,30.12,NNW,338,4.0,5.0,70,0.00,,,0.01,Wunderground v.1.15,2013-03-11 03:45:00,
2013-03-10 22:50:00,38.8,29.8,30.12,North,349,4.0,4.0,70,0.00,,,0.01,Wunderground v.1.15,2013-03-11 03:50:00,
2013-03-10 22:59:00,38.7,30.0,30.12,NNW,343,5.0,7.0,70,0.00,,,0.01,weatherlink.com 1.10,2013-03-11 03:59:00,
2013-03-10 23:00:00,38.7,29.8,30.12,NNW,340,4.0,5.0,70,0.00,,,0.01,Wunderground v.1.15,2013-03-11 04:00:00,
2013-03-10 23:05:00,38.7,29.8,30.12,NNW,327,4.0,5.0,70,0.00,,,0.01,Wunderground v.1.15,2013-03-11 04:05:00,
2013-03-10 23:10:00,38.6,29.7,30.12,NNW,329,4.0,6.0,70,0.00,,,0.01,Wunderground v.1.15,2013-03-11 04:10:00,
2013-03-10 23:14:00,38.6,30.0,30.12,North,360,5.0,7.0,70,0.00,,,0.01,weatherlink.com 1.10,2013-03-11 04:14:00,
2013-03-10 23:20:00,38.5,29.6,30.12,North,360,4.0,5.0,70,0.00,,,0.01,Wunderground v.1.15,2013-03-11 04:20:00,
2013-03-10 23:25:00,38.4,29.8,30.11,North,355,4.0,5.0,71,0.00,,,0.01,Wunderground v.1.15,2013-03-11 04:25:00,
2013-03-10 23:30:00,38.3,29.7,30.11,North,355,5.0,5.0,71,0.00,,,0.01,Wunderground v.1.15,2013-03-11 04:30:00,
2013-03-10 23:31:00,38.3,30.0,30.11,North,355,5.0,8.0,71,0.00,,,0.01,weatherlink.com 1.10,2013-03-11 04:31:00,
2013-03-10 23:35:00,38.2,29.6,30.11,North,355,5.0,6.0,71,0.00,,,0.01,Wunderground v.1.15,2013-03-11 04:35:00,
2013-03-10 23:40:00,38.1,29.5,30.11,North,355,5.0,5.0,71,0.00,,,0.01,Wunderground v.1.15,2013-03-11 04:40:00,
2013-03-10 23:45:00,38.0,29.8,30.11,North,5,5.0,5.0,72,0.00,,,0.01,Wunderground v.1.15,2013-03-11 04:45:00,
2013-03-10 23:46:00,37.9,30.0,30.11,NNW,347,6.0,10.0,72,0.00,,,0.01,weatherlink.com 1.10,2013-03-11 04:46:00,
2013-03-10 23:55:00,37.7,29.5,30.11,North,360,5.0,6.0,72,0.00,,,0.01,Wunderground v.1.15,2013-03-11 04:55:00,